Laemchabang, Thailand

8:39 PM ICT on September 30, 2014 (GMT +0700)
Pattaya | Change Station
CLOSE
Current Station
Personal Weather Station
Location: Pattaya, CHONBURI
Elevation: 141 ft
Nearby Weather Stations

Elev 141 ft 12.93 °N, 100.91 °E | Updated 4 minutes ago

Mostly Cloudy
Mostly Cloudy
79.5 °F
Feels Like 85 °F
N
1.0
Wind Variable Wind from East
Gusts 3.0 mph

Today
High -- | Low -- °F
--% Chance of Precip.
Yesterday
High -- | Low -- °F
Precip. -- in
6:05 AM 6:07 PM
Waxing Crescent, 37% visible
Pressure 29.86 in
Visibility 6.2 miles
Clouds Few 2000 ft
Scattered Clouds 12000 ft
Mostly Cloudy 30000 ft
Heat Index 85 °F
Dew Point 78 °F
Humidity 95%
Rainfall 0.32 in
Snow Depth Not available.
UV 0 out of 12
Pollen Not available.
Air Quality Not available.
Flu Activity Not available.
METAR VTBS 301330Z 11004KT 050V190 9999 FEW020 SCT120 BKN300 27/22 Q1011 NOSIG

More Conditions Fewer Conditions

Pressure 29.86 in
Visibility 6.2 miles
Clouds Few 2000 ft
Scattered Clouds 12000 ft
Mostly Cloudy 30000 ft
Heat Index 85 °F
Dew Point 78 °F
Humidity 95%
Rainfall 0.32 in
Snow Depth Not available.
UV 0 out of 12
Pollen Not available.
Air Quality Not available.
Flu Activity Not available.
METAR VTBS 301330Z 11004KT 050V190 9999 FEW020 SCT120 BKN300 27/22 Q1011 NOSIG

More Conditions Fewer Conditions

10-Day Weather Forecast

Almanac

Astronomy

Sep. 30, 2014 Rise Set
Actual Time 6:05 AM ICT 6:07 PM ICT
Civil Twilight 5:44 AM ICT 6:28 PM ICT
Nautical Twilight 5:19 AM ICT 6:53 PM ICT
Astronomical Twilight 4:55 AM ICT 7:17 PM ICT
Moon 11:01 AM ICT 10:50 PM ICT
Length of Visible Light 12h 43m
Length of Day
12h 01m
Tomorrow will be 0m 43s shorter.
Waxing Crescent, 37% of the Moon is Illuminated
Today
Waxing Crescent
Oct 1
First Quarter
Oct 8
Full
Oct 15
Last Quarter
Oct 23
New

Yesterday's Extremes

Country Highs Country Lows

Community

WunderPhotos

Upload Photos

1,757,636 photos uploaded!

Nearby

Snow Depth

Not available.

Earthquake Activity

City Distance Mag. Time & Date
No recent earthquake activity has been reported nearby.
Minimum magnitude displayed is 2.5.

Coastal Water Temperatures

Place Temperature
No Stations Reporting

Nearby Weather Stations